Time;durP1;ratioP1;P1;durP2;ratioP2;P2;SDS_P1;SDS_P2;PMS_P1;PMS_P2;Temp;Humidity;BMP_temperature;BMP_pressure;BME280_temperature;BME280_humidity;BME280_pressure;Samples;Min_cycle;Max_cycle;Signal;HPM_P1;HPM_P2
2022/05/27 00:02:11;;;;;;;15.07;3.33;;;14.60;99.90;;;;;;4987988;28;20133;-41
2022/05/27 00:04:37;;;;;;;16.45;3.75;;;14.60;99.90;;;;;;4988924;28;20054;-41
2022/05/27 00:07:03;;;;;;;15.43;3.72;;;14.60;99.90;;;;;;4975640;28;20527;-41
2022/05/27 00:09:29;;;;;;;18.15;3.55;;;14.50;99.90;;;;;;4991268;28;20088;-41
2022/05/27 00:11:54;;;;;;;17.33;4.22;;;14.50;99.90;;;;;;4990205;28;20092;-41
2022/05/27 00:14:21;;;;;;;14.85;3.95;;;14.50;99.90;;;;;;4986741;28;20122;-41
2022/05/27 00:16:47;;;;;;;13.25;3.53;;;14.40;99.90;;;;;;4973689;28;20084;-41
2022/05/27 00:19:13;;;;;;;14.23;3.60;;;14.40;99.90;;;;;;4989804;28;20133;-41
2022/05/27 00:21:39;;;;;;;15.55;3.83;;;14.40;99.90;;;;;;4990446;28;20089;-41
2022/05/27 00:24:05;;;;;;;15.80;3.47;;;14.40;99.90;;;;;;4984573;28;20629;-41
2022/05/27 00:26:31;;;;;;;13.25;3.38;;;14.30;99.90;;;;;;4957458;28;20077;-41
2022/05/27 00:28:57;;;;;;;16.02;3.58;;;14.30;99.90;;;;;;4983616;28;20050;-41
2022/05/27 00:31:23;;;;;;;16.45;3.33;;;14.30;99.90;;;;;;4990046;28;20421;-41
2022/05/27 00:33:48;;;;;;;13.15;3.78;;;14.30;99.90;;;;;;4989168;28;20049;-41
2022/05/27 00:36:15;;;;;;;15.15;3.10;;;14.20;99.90;;;;;;4979197;28;20042;-41
2022/05/27 00:38:42;;;;;;;15.50;3.45;;;14.20;99.90;;;;;;4983559;28;20503;-41
2022/05/27 00:41:09;;;;;;;19.13;3.92;;;14.20;99.90;;;;;;4982934;28;20093;-41
2022/05/27 00:43:35;;;;;;;15.25;3.70;;;14.10;99.90;;;;;;4985844;28;20050;-41
2022/05/27 00:46:06;;;;;;;15.80;3.35;;;14.10;99.90;;;;;;4990070;28;20034;-41
2022/05/27 00:48:36;;;;;;;18.52;3.75;;;14.10;99.90;;;;;;4978589;28;20052;-41
2022/05/27 00:51:04;;;;;;;19.80;3.55;;;14.10;99.90;;;;;;4990637;28;20078;-42
2022/05/27 00:53:38;;;;;;;17.90;3.75;;;14.00;99.90;;;;;;4988955;28;20469;-41
2022/05/27 00:56:05;;;;;;;16.40;3.60;;;13.90;99.90;;;;;;4990334;28;20057;-41
2022/05/27 00:58:38;;;;;;;17.40;2.95;;;13.90;99.90;;;;;;4978493;28;20042;-40
2022/05/27 01:01:04;;;;;;;23.95;3.75;;;13.90;99.90;;;;;;4988748;28;20430;-41
2022/05/27 01:03:31;;;;;;;16.10;3.65;;;13.90;99.90;;;;;;4989076;28;20684;-41
2022/05/27 01:05:57;;;;;;;12.43;3.15;;;13.80;99.90;;;;;;4990365;28;20073;-41
2022/05/27 01:08:26;;;;;;;12.95;3.65;;;13.80;99.90;;;;;;4975650;28;20066;-41
2022/05/27 01:11:06;;;;;;;15.52;3.78;;;13.70;99.90;;;;;;4989963;28;20129;-41
2022/05/27 01:13:55;;;;;;;16.38;3.22;;;13.70;99.90;;;;;;4988942;28;20046;-41
2022/05/27 01:16:33;;;;;;;18.05;3.08;;;13.70;99.90;;;;;;4976617;28;20497;-41
2022/05/27 01:22:32;;;;;;;17.25;3.15;;;13.60;99.90;;;;;;5008813;28;20057;-41
2022/05/27 01:25:25;;;;;;;14.63;2.92;;;13.60;99.90;;;;;;5008268;28;20536;-41
2022/05/27 01:28:15;;;;;;;16.90;3.13;;;13.50;99.90;;;;;;4963206;28;20535;-41
2022/05/27 01:31:09;;;;;;;18.13;3.25;;;13.50;99.90;;;;;;4989773;28;20057;-41
2022/05/27 01:34:05;;;;;;;16.70;3.25;;;13.40;99.90;;;;;;4988925;28;20513;-41
2022/05/27 01:36:39;;;;;;;15.25;3.40;;;13.30;99.90;;;;;;4976620;28;20421;-41
2022/05/27 01:39:07;;;;;;;15.73;2.97;;;13.30;99.90;;;;;;4985744;28;20142;-41
2022/05/27 01:41:58;;;;;;;16.08;2.85;;;13.30;99.90;;;;;;4981094;28;20131;-41
2022/05/27 01:44:43;;;;;;;13.60;3.05;;;13.20;99.90;;;;;;4991921;28;20050;-41
2022/05/27 01:47:17;;;;;;;15.93;3.05;;;13.10;99.90;;;;;;4976229;28;20054;-41
2022/05/27 01:49:55;;;;;;;10.48;2.40;;;13.30;99.90;;;;;;4992791;28;20101;-41
2022/05/27 01:52:26;;;;;;;15.45;2.90;;;13.10;99.90;;;;;;4992256;28;20061;-41
2022/05/27 01:54:55;;;;;;;;;;;13.00;99.90;;;;;;4993639;28;20070;-41
2022/05/27 01:57:31;;;;;;;14.10;3.22;;;13.00;99.90;;;;;;4977165;28;19926;-41
2022/05/27 02:00:10;;;;;;;12.35;2.88;;;13.00;99.90;;;;;;4993015;28;20502;-41
2022/05/27 02:02:43;;;;;;;9.93;2.70;;;12.90;99.90;;;;;;4988751;28;20045;-41
2022/05/27 02:05:15;;;;;;;13.27;3.15;;;12.90;99.90;;;;;;4993169;28;20493;-41
2022/05/27 02:07:57;;;;;;;12.85;2.80;;;12.80;99.90;;;;;;4978617;28;20109;-41
2022/05/27 02:10:35;;;;;;;12.48;2.78;;;12.80;99.90;;;;;;4993064;28;20047;-41
2022/05/27 02:13:23;;;;;;;15.13;2.65;;;12.80;99.90;;;;;;4991923;28;20046;-41
2022/05/27 02:15:52;;;;;;;13.15;2.90;;;12.70;99.90;;;;;;4992668;28;20090;-41
2022/05/27 02:18:21;;;;;;;14.32;2.85;;;12.70;99.90;;;;;;4986969;28;20125;-41
2022/05/27 02:21:34;;;;;;;15.90;3.08;;;12.60;99.90;;;;;;5010614;28;20057;-41
2022/05/27 02:24:06;;;;;;;15.80;2.80;;;12.60;99.90;;;;;;5009598;28;20054;-41
2022/05/27 02:26:38;;;;;;;13.82;2.30;;;12.60;99.90;;;;;;4986293;28;20161;-41
2022/05/27 02:29:12;;;;;;;11.57;2.60;;;12.60;99.90;;;;;;4989889;28;20046;-41
2022/05/27 02:31:41;;;;;;;14.35;2.95;;;12.50;99.90;;;;;;4992537;28;20124;-41
2022/05/27 02:37:04;;;;;;;;;;;12.50;99.90;;;;;;4976768;28;20153;-41
2022/05/27 02:39:30;;;;;;;;;;;12.40;99.90;;;;;;4992680;28;20031;-41
2022/05/27 02:42:16;;;;;;;12.45;2.63;;;12.40;99.90;;;;;;4982500;28;20184;-41
2022/05/27 02:44:46;;;;;;;12.80;2.20;;;12.30;99.90;;;;;;4990863;28;20405;-41
2022/05/27 02:47:23;;;;;;;9.15;2.50;;;12.30;99.90;;;;;;4975963;28;20046;-41
2022/05/27 02:50:18;;;;;;;10.27;2.45;;;12.30;99.90;;;;;;4991761;28;20054;-41
2022/05/27 02:53:12;;;;;;;11.50;2.60;;;12.20;99.90;;;;;;4994062;28;20133;-41
2022/05/27 02:55:43;;;;;;;14.45;2.53;;;12.20;99.90;;;;;;5011452;28;20509;-41
2022/05/27 02:58:09;;;;;;;13.20;2.83;;;12.10;99.90;;;;;;4995158;28;20602;-41
2022/05/27 03:00:37;;;;;;;13.82;2.55;;;12.10;99.90;;;;;;5005568;28;20077;-41
2022/05/27 03:03:03;;;;;;;10.15;2.28;;;12.10;99.90;;;;;;4990867;28;20050;-41
2022/05/27 03:05:37;;;;;;;11.10;2.65;;;12.10;99.90;;;;;;4991556;28;20137;-41
2022/05/27 03:08:19;;;;;;;13.77;2.88;;;12.10;99.90;;;;;;4976741;28;20093;-41
2022/05/27 03:11:15;;;;;;;12.40;2.55;;;12.00;99.90;;;;;;4993685;28;20108;-41
2022/05/27 03:14:12;;;;;;;8.90;2.30;;;12.00;99.90;;;;;;5010161;28;20084;-41
2022/05/27 03:17:08;;;;;;;12.50;2.20;;;11.90;99.90;;;;;;4969622;28;20054;-42
2022/05/27 03:19:41;;;;;;;14.38;2.33;;;11.90;99.90;;;;;;4990583;28;20055;-41
2022/05/27 03:22:44;;;;;;;12.65;2.45;;;11.80;99.90;;;;;;4990686;28;20046;-42
2022/05/27 03:25:27;;;;;;;18.13;2.78;;;11.80;99.90;;;;;;4991766;28;20058;-41
2022/05/27 03:28:32;;;;;;;15.52;2.63;;;11.70;99.90;;;;;;4970446;28;20517;-41
2022/05/27 03:31:04;;;;;;;11.25;2.78;;;11.70;99.90;;;;;;4990964;28;20085;-41
2022/05/27 03:33:34;;;;;;;10.07;2.50;;;11.60;99.90;;;;;;4990232;28;20081;-41
2022/05/27 03:36:08;;;;;;;12.70;2.50;;;11.50;99.90;;;;;;4988491;28;20507;-41
2022/05/27 03:38:43;;;;;;;12.98;2.45;;;11.60;99.90;;;;;;4981377;28;20050;-41
2022/05/27 03:41:24;;;;;;;15.90;2.85;;;11.50;99.90;;;;;;4983524;28;20046;-41
2022/05/27 03:43:50;;;;;;;14.40;2.22;;;11.50;99.90;;;;;;4988070;28;20042;-41
2022/05/27 03:46:37;;;;;;;11.60;2.40;;;11.50;99.90;;;;;;4980104;28;20050;-41
2022/05/27 03:49:04;;;;;;;14.90;3.03;;;11.50;99.90;;;;;;4988492;28;20048;-41
2022/05/27 03:51:37;;;;;;;12.70;2.70;;;11.50;99.90;;;;;;4990910;28;20050;-41
2022/05/27 03:54:10;;;;;;;10.40;2.17;;;11.50;99.90;;;;;;4989974;28;20042;-41
2022/05/27 03:56:39;;;;;;;13.32;2.35;;;11.40;99.90;;;;;;4977383;28;20105;-41
2022/05/27 03:59:08;;;;;;;9.68;2.38;;;11.50;99.90;;;;;;4988636;28;20137;-41
2022/05/27 04:01:36;;;;;;;8.88;2.33;;;11.40;99.90;;;;;;4987574;28;20043;-41
2022/05/27 04:04:05;;;;;;;14.05;2.25;;;11.40;99.90;;;;;;4989125;28;20062;-41
2022/05/27 04:06:31;;;;;;;16.17;2.60;;;11.30;99.90;;;;;;4977228;28;20046;-41
2022/05/27 04:08:57;;;;;;;11.07;2.42;;;11.30;99.90;;;;;;4989771;28;20498;-41
2022/05/27 04:11:25;;;;;;;15.38;2.47;;;11.30;99.90;;;;;;4990861;28;20453;-41
2022/05/27 04:13:51;;;;;;;11.30;2.30;;;11.40;99.90;;;;;;4989594;28;20052;-41
2022/05/27 04:16:17;;;;;;;13.35;2.30;;;11.30;99.90;;;;;;4979114;28;20054;-41
2022/05/27 04:18:42;;;;;;;11.05;2.70;;;11.40;99.90;;;;;;4992118;28;20048;-41
2022/05/27 04:21:11;;;;;;;12.15;2.50;;;11.40;99.90;;;;;;4999350;28;20810;-43
2022/05/27 04:23:37;;;;;;;13.52;2.75;;;11.30;99.90;;;;;;4993112;28;20042;-41
2022/05/27 04:26:04;;;;;;;7.80;2.75;;;11.30;99.90;;;;;;4989612;28;20401;-42
2022/05/27 04:28:30;;;;;;;12.40;2.72;;;11.40;99.90;;;;;;4980808;28;20081;-42
2022/05/27 04:30:56;;;;;;;13.27;3.20;;;11.30;99.90;;;;;;4998761;28;20034;-42
2022/05/27 04:33:22;;;;;;;11.43;2.47;;;11.30;99.90;;;;;;4994514;28;20050;-42
2022/05/27 04:35:47;;;;;;;13.57;3.03;;;11.30;99.90;;;;;;4990568;28;20516;-41
2022/05/27 04:38:14;;;;;;;12.43;2.63;;;11.30;99.90;;;;;;4974659;28;20058;-42
2022/05/27 04:40:40;;;;;;;15.82;2.88;;;11.30;99.90;;;;;;4987424;28;20675;-41
2022/05/27 04:43:06;;;;;;;10.30;2.60;;;11.30;99.90;;;;;;4983215;28;20090;-42
2022/05/27 04:45:33;;;;;;;14.30;3.08;;;11.30;99.90;;;;;;4977360;28;20086;-42
2022/05/27 04:47:59;;;;;;;16.42;2.88;;;11.40;99.90;;;;;;4973941;28;20072;-42
2022/05/27 04:50:27;;;;;;;15.35;3.35;;;11.40;99.90;;;;;;4990123;28;20046;-42
2022/05/27 04:52:53;;;;;;;13.90;2.95;;;11.40;99.90;;;;;;4989373;28;20070;-41
2022/05/27 04:55:19;;;;;;;11.10;2.90;;;11.40;99.90;;;;;;4990098;28;20057;-42
2022/05/27 04:57:53;;;;;;;13.52;2.72;;;11.40;99.90;;;;;;4974217;28;20042;-41
2022/05/27 05:00:26;;;;;;;14.23;3.10;;;11.50;99.90;;;;;;4990219;28;20081;-41
2022/05/27 05:02:52;;;;;;;14.60;3.15;;;11.50;99.90;;;;;;4985919;28;20413;-41
2022/05/27 05:05:19;;;;;;;14.50;3.38;;;11.50;99.90;;;;;;4989993;28;20501;-42
2022/05/27 05:07:48;;;;;;;13.85;2.55;;;11.60;99.90;;;;;;4979505;28;20049;-41
2022/05/27 05:10:18;;;;;;;18.48;3.40;;;11.60;99.90;;;;;;5009498;28;20068;-41
2022/05/27 05:12:44;;;;;;;14.45;2.67;;;11.60;99.90;;;;;;5008363;28;20057;-41
2022/05/27 05:15:11;;;;;;;16.92;2.92;;;11.70;99.90;;;;;;5008302;28;20053;-41
2022/05/27 05:17:37;;;;;;;13.10;2.67;;;11.60;99.90;;;;;;4978101;28;20030;-41
2022/05/27 05:20:04;;;;;;;11.65;2.35;;;11.70;99.90;;;;;;4993881;28;20050;-41
2022/05/27 05:22:31;;;;;;;12.00;3.20;;;11.70;99.90;;;;;;4993025;28;20472;-41
2022/05/27 05:24:57;;;;;;;15.45;3.03;;;11.70;99.90;;;;;;4981031;28;20113;-41
2022/05/27 05:27:26;;;;;;;11.48;2.70;;;11.70;99.90;;;;;;4960884;28;20046;-42
2022/05/27 05:29:53;;;;;;;10.80;2.33;;;11.70;99.90;;;;;;4993740;28;20072;-41
2022/05/27 05:32:19;;;;;;;15.25;2.95;;;11.70;99.90;;;;;;4983405;28;20494;-41
2022/05/27 05:34:44;;;;;;;13.13;2.50;;;11.80;99.90;;;;;;4982223;28;20057;-41
2022/05/27 05:37:10;;;;;;;9.30;2.28;;;11.70;99.90;;;;;;4977219;28;20050;-41
2022/05/27 05:39:39;;;;;;;15.93;2.92;;;11.80;99.90;;;;;;4985721;28;20050;-41
2022/05/27 05:42:07;;;;;;;19.52;2.70;;;11.80;99.90;;;;;;4982614;28;20089;-42
2022/05/27 05:44:33;;;;;;;22.02;3.10;;;11.90;99.90;;;;;;4992862;28;20497;-41
2022/05/27 05:46:59;;;;;;;10.98;2.33;;;12.00;99.90;;;;;;4978175;28;20437;-41
2022/05/27 05:49:25;;;;;;;13.90;3.05;;;12.00;99.90;;;;;;4991868;28;20050;-41
2022/05/27 05:51:54;;;;;;;12.15;3.10;;;12.10;99.90;;;;;;4991950;28;20035;-41
2022/05/27 05:54:21;;;;;;;16.23;3.25;;;12.20;99.90;;;;;;4992048;28;20064;-41
2022/05/27 05:56:48;;;;;;;15.10;3.50;;;12.30;99.90;;;;;;4977907;28;20089;-41
2022/05/27 05:59:14;;;;;;;14.50;3.10;;;12.40;99.90;;;;;;4978460;28;20493;-42
2022/05/27 06:01:42;;;;;;;16.88;3.35;;;12.40;99.90;;;;;;4964462;28;20063;-41
2022/05/27 06:04:07;;;;;;;14.77;3.05;;;12.60;99.90;;;;;;4982608;28;20088;-42
2022/05/27 06:06:34;;;;;;;11.95;2.88;;;12.60;99.90;;;;;;4972298;28;20049;-42
2022/05/27 06:09:00;;;;;;;12.90;3.10;;;12.70;99.90;;;;;;4990200;28;20073;-41
2022/05/27 06:11:26;;;;;;;15.35;3.28;;;12.80;99.90;;;;;;4986392;28;20046;-41
2022/05/27 06:13:51;;;;;;;15.10;3.33;;;13.00;99.90;;;;;;4991577;28;20619;-41
2022/05/27 06:16:17;;;;;;;12.60;2.90;;;12.90;99.90;;;;;;4982241;28;20537;-41
2022/05/27 06:18:43;;;;;;;13.43;2.80;;;12.80;99.90;;;;;;5000506;28;20129;-41
2022/05/27 06:21:09;;;;;;;14.55;3.08;;;12.90;99.90;;;;;;5012116;28;20061;-41
2022/05/27 06:23:35;;;;;;;12.95;2.58;;;13.00;99.90;;;;;;4996826;28;20050;-41
2022/05/27 06:26:08;;;;;;;14.32;2.92;;;13.10;99.90;;;;;;4992380;28;20061;-41
2022/05/27 06:34:23;;;;;;;13.48;2.63;;;13.20;99.90;;;;;;4991056;28;20057;-41
2022/05/27 06:36:50;;;;;;;14.23;2.90;;;13.40;99.90;;;;;;4977580;28;20046;-41
2022/05/27 06:39:16;;;;;;;14.50;3.00;;;13.30;99.90;;;;;;4992177;28;20103;-41
2022/05/27 06:41:43;;;;;;;13.18;2.72;;;13.40;99.90;;;;;;4987764;28;20039;-41
2022/05/27 06:44:09;;;;;;;12.77;2.70;;;13.40;99.90;;;;;;4989235;28;20050;-41
2022/05/27 06:46:36;;;;;;;18.58;3.05;;;13.40;99.90;;;;;;4978360;28;20050;-41
2022/05/27 06:49:02;;;;;;;13.55;3.55;;;13.30;99.90;;;;;;4996722;28;20054;-41
2022/05/27 06:51:27;;;;;;;11.70;3.10;;;13.40;99.90;;;;;;4986951;28;20034;-43
2022/05/27 06:53:53;;;;;;;10.77;2.40;;;13.40;99.90;;;;;;4974669;28;20179;-41
2022/05/27 06:56:21;;;;;;;17.27;3.08;;;13.40;99.90;;;;;;4953513;28;20108;-40
2022/05/27 06:58:47;;;;;;;11.63;2.90;;;13.40;99.90;;;;;;4957810;28;20709;-40
2022/05/27 07:01:12;;;;;;;17.23;3.33;;;13.50;99.90;;;;;;4957324;28;20059;-41
2022/05/27 07:03:38;;;;;;;15.15;2.85;;;13.50;99.90;;;;;;4953304;28;20046;-40
2022/05/27 07:06:06;;;;;;;13.50;2.53;;;13.50;99.90;;;;;;4952111;28;20055;-43
2022/05/27 07:08:32;;;;;;;11.77;2.47;;;13.40;99.90;;;;;;4942786;28;20076;-42
2022/05/27 07:10:58;;;;;;;19.40;3.10;;;13.60;99.90;;;;;;4957553;28;20082;-42
2022/05/27 07:13:23;;;;;;;16.35;3.45;;;13.60;99.90;;;;;;4967949;28;20053;-42
2022/05/27 07:15:49;;;;;;;17.10;2.95;;;13.70;99.90;;;;;;4976372;28;20057;-43
2022/05/27 07:18:15;;;;;;;17.17;3.10;;;13.70;99.90;;;;;;4987926;28;20058;-43
2022/05/27 07:20:41;;;;;;;13.75;3.33;;;13.70;99.90;;;;;;4978982;28;20129;-43
2022/05/27 07:23:08;;;;;;;15.15;2.75;;;13.70;99.90;;;;;;4973776;28;20196;-43
2022/05/27 07:25:37;;;;;;;15.60;3.22;;;13.70;99.90;;;;;;4975804;28;20062;-43
2022/05/27 07:28:04;;;;;;;14.43;3.40;;;13.70;99.90;;;;;;4955856;28;20047;-42
2022/05/27 07:30:30;;;;;;;19.55;3.55;;;13.70;99.90;;;;;;4971884;28;20371;-42
2022/05/27 07:32:56;;;;;;;12.93;2.85;;;13.70;99.90;;;;;;4970245;28;20049;-42
2022/05/27 07:35:22;;;;;;;17.90;3.20;;;13.70;99.90;;;;;;4975010;28;20094;-42
2022/05/27 07:37:48;;;;;;;14.27;3.17;;;13.70;99.90;;;;;;4960302;28;20042;-43
2022/05/27 07:40:14;;;;;;;13.88;3.30;;;13.70;99.90;;;;;;4974760;28;20137;-43
2022/05/27 07:42:40;;;;;;;16.27;3.38;;;13.70;99.90;;;;;;4970201;28;20035;-43
2022/05/27 07:45:08;;;;;;;17.02;2.83;;;13.70;99.90;;;;;;4972591;28;20050;-42
2022/05/27 07:47:33;;;;;;;12.82;3.17;;;13.60;99.90;;;;;;4954938;28;20782;-45
2022/05/27 07:49:59;;;;;;;14.10;3.13;;;13.70;99.90;;;;;;4980002;28;20042;-43
2022/05/27 07:52:25;;;;;;;15.82;3.20;;;13.60;99.90;;;;;;4983884;28;20133;-43
2022/05/27 07:54:51;;;;;;;13.25;2.50;;;13.70;99.90;;;;;;4985336;28;20066;-43
2022/05/27 07:57:23;;;;;;;16.25;2.97;;;13.70;99.90;;;;;;4971666;28;20046;-41
2022/05/27 07:59:55;;;;;;;13.90;3.00;;;13.70;99.90;;;;;;4984338;28;20050;-43
2022/05/27 08:02:25;;;;;;;14.48;3.00;;;13.80;99.90;;;;;;4987699;28;20125;-43
2022/05/27 08:04:52;;;;;;;15.13;3.00;;;13.90;99.90;;;;;;4981282;28;20055;-43
2022/05/27 08:07:18;;;;;;;12.90;3.10;;;13.80;99.90;;;;;;4971821;28;20057;-43
2022/05/27 08:09:44;;;;;;;13.52;2.92;;;13.90;99.90;;;;;;4981407;28;20053;-43
2022/05/27 08:12:10;;;;;;;15.82;2.92;;;13.90;99.90;;;;;;4985603;28;20065;-43
2022/05/27 08:14:37;;;;;;;14.88;3.20;;;13.90;99.90;;;;;;4985474;28;20498;-43
2022/05/27 08:17:02;;;;;;;12.13;2.88;;;13.90;99.90;;;;;;4969270;28;20149;-42
2022/05/27 08:19:28;;;;;;;16.75;3.38;;;13.80;99.90;;;;;;4973215;28;20359;-42
2022/05/27 08:21:54;;;;;;;9.20;2.22;;;13.80;99.90;;;;;;4969634;28;20046;-43
2022/05/27 08:24:20;;;;;;;9.63;2.40;;;13.90;99.90;;;;;;4983815;28;20039;-44
2022/05/27 08:26:47;;;;;;;12.18;2.38;;;13.90;99.90;;;;;;4961034;28;20049;-44
2022/05/27 08:29:13;;;;;;;11.32;2.92;;;14.00;99.90;;;;;;4985276;28;20054;-43
2022/05/27 08:31:39;;;;;;;15.20;3.13;;;13.90;99.90;;;;;;4981220;28;20057;-43
2022/05/27 08:39:38;;;;;;;10.38;3.15;;;13.90;99.90;;;;;;4983681;28;20062;-43
2022/05/27 08:42:04;;;;;;;12.57;2.80;;;13.90;99.90;;;;;;4984369;28;20042;-45
2022/05/27 08:44:45;;;;;;;16.20;3.08;;;13.90;99.90;;;;;;4973261;28;20458;-43
2022/05/27 08:47:25;;;;;;;16.05;3.33;;;13.90;99.90;;;;;;4953485;28;20065;-42
2022/05/27 08:50:07;;;;;;;14.68;3.30;;;14.00;99.90;;;;;;4983623;28;20585;-43
2022/05/27 08:52:39;;;;;;;14.35;2.90;;;14.00;99.90;;;;;;4985210;28;20125;-43
2022/05/27 09:01:12;;;;;;;18.75;3.53;;;13.90;99.90;;;;;;4980781;28;20082;-42
2022/05/27 09:03:46;;;;;;;12.27;3.15;;;14.00;99.90;;;;;;4983665;28;20046;-43
2022/05/27 09:06:15;;;;;;;14.15;3.30;;;13.90;99.90;;;;;;4994591;28;20043;-42
2022/05/27 09:08:40;;;;;;;14.35;2.97;;;13.90;99.90;;;;;;4991786;28;20050;-42
2022/05/27 09:11:11;;;;;;;13.05;2.80;;;13.90;99.90;;;;;;4994102;28;20057;-42
2022/05/27 09:13:59;;;;;;;17.23;3.00;;;13.90;99.90;;;;;;4991263;28;20078;-42
2022/05/27 09:16:31;;;;;;;14.43;3.17;;;13.90;99.90;;;;;;4981535;28;20162;-42
2022/05/27 09:19:37;;;;;;;16.85;3.42;;;13.90;99.90;;;;;;4990453;28;20060;-42
2022/05/27 09:22:30;;;;;;;15.18;3.25;;;13.90;99.90;;;;;;4994028;28;20050;-42
2022/05/27 09:25:16;;;;;;;12.98;3.25;;;14.00;99.90;;;;;;5416234;23;20102;-42
2022/05/27 09:28:04;;;;;;;15.52;3.35;;;13.90;99.90;;;;;;4953015;28;20482;-42
2022/05/27 09:30:33;;;;;;;14.07;2.85;;;13.90;99.90;;;;;;4964843;28;20243;-42
2022/05/27 09:33:16;;;;;;;17.00;3.35;;;14.00;99.90;;;;;;4961772;28;20536;-42
2022/05/27 09:35:43;;;;;;;15.00;3.50;;;14.00;99.90;;;;;;4969218;28;20135;-42
2022/05/27 09:38:34;;;;;;;14.20;2.88;;;14.00;99.90;;;;;;4949288;28;20046;-42
2022/05/27 09:41:40;;;;;;;16.92;3.70;;;14.10;99.90;;;;;;4967849;28;20109;-42
2022/05/27 09:44:30;;;;;;;17.65;3.50;;;14.00;99.90;;;;;;4968463;28;20102;-42
2022/05/27 09:46:56;;;;;;;12.70;2.83;;;14.00;99.90;;;;;;4953723;28;20050;-42
2022/05/27 09:49:21;;;;;;;16.75;3.05;;;14.00;99.90;;;;;;4966071;28;20043;-42
2022/05/27 09:51:47;;;;;;;13.65;2.85;;;14.00;99.90;;;;;;4968969;28;20177;-41
2022/05/27 09:54:33;;;;;;;16.15;3.42;;;13.90;99.90;;;;;;4957531;28;20091;-41
2022/05/27 09:57:02;;;;;;;18.38;3.97;;;14.00;99.90;;;;;;4935617;28;20669;-42
2022/05/27 09:59:38;;;;;;;20.20;3.75;;;14.00;99.90;;;;;;4948844;28;20049;-42
2022/05/27 10:02:35;;;;;;;18.98;2.97;;;14.10;99.90;;;;;;4964657;28;20501;-45
2022/05/27 10:05:23;;;;;;;17.02;2.92;;;14.10;99.90;;;;;;4968740;28;20059;-41
2022/05/27 10:07:57;;;;;;;17.55;3.30;;;14.10;99.90;;;;;;4952781;28;20038;-42
2022/05/27 10:10:28;;;;;;;14.93;3.53;;;14.10;99.90;;;;;;4968514;28;20400;-42
2022/05/27 10:12:56;;;;;;;16.83;3.50;;;14.20;99.90;;;;;;4957778;28;20062;-41
2022/05/27 10:15:42;;;;;;;18.05;2.95;;;14.20;99.90;;;;;;4950953;28;20078;-42
2022/05/27 10:18:18;;;;;;;15.27;3.50;;;14.20;99.90;;;;;;4939709;28;20120;-42
2022/05/27 10:21:01;;;;;;;20.55;4.07;;;14.20;99.90;;;;;;4971429;28;20137;-42
2022/05/27 10:23:33;;;;;;;21.33;3.65;;;14.20;99.90;;;;;;4987419;28;20054;-42
2022/05/27 10:25:59;;;;;;;16.73;3.15;;;14.20;99.90;;;;;;4985916;28;20053;-42
2022/05/27 10:28:31;;;;;;;13.95;3.25;;;14.20;99.90;;;;;;4971637;28;20494;-42
2022/05/27 10:31:03;;;;;;;9.23;2.78;;;14.10;99.90;;;;;;4986523;28;20620;-42
2022/05/27 10:33:47;;;;;;;16.85;3.35;;;14.20;99.90;;;;;;4986772;28;20065;-42
2022/05/27 10:36:27;;;;;;;13.63;3.45;;;14.30;99.90;;;;;;4980615;28;20121;-42
2022/05/27 10:39:03;;;;;;;20.00;3.10;;;14.30;99.90;;;;;;4986400;28;20062;-41
2022/05/27 10:41:41;;;;;;;13.15;3.13;;;14.30;99.90;;;;;;4989656;28;20141;-44
2022/05/27 10:44:22;;;;;;;11.93;3.03;;;14.30;99.90;;;;;;4986086;28;20057;-43
2022/05/27 10:46:53;;;;;;;12.93;3.10;;;14.30;99.90;;;;;;4972292;28;20069;-43
2022/05/27 10:49:40;;;;;;;11.27;2.63;;;14.30;99.90;;;;;;4989041;28;20054;-43
2022/05/27 10:52:27;;;;;;;16.90;3.25;;;14.30;99.90;;;;;;4989284;28;20293;-43
2022/05/27 10:55:18;;;;;;;15.15;3.40;;;14.30;99.90;;;;;;4979683;28;20063;-42
2022/05/27 11:04:49;;;;;;;12.60;2.78;;;14.30;99.90;;;;;;4966299;28;20560;-43
2022/05/27 11:07:42;;;;;;;14.18;3.15;;;14.30;99.90;;;;;;4949465;28;20050;-43
2022/05/27 11:10:33;;;;;;;17.48;2.85;;;14.30;99.90;;;;;;4967310;28;20212;-43
2022/05/27 11:16:45;;;;;;;14.88;2.83;;;14.30;99.90;;;;;;4967430;28;20148;-42
2022/05/27 11:19:41;;;;;;;12.40;2.92;;;14.30;99.90;;;;;;4976949;28;20406;-42
2022/05/27 11:22:36;;;;;;;15.35;3.55;;;14.40;99.90;;;;;;4977739;28;20065;-43
2022/05/27 11:25:06;;;;;;;13.23;2.75;;;14.40;99.90;;;;;;4979926;28;20080;-43
2022/05/27 11:28:08;;;;;;;11.48;2.38;;;14.40;99.90;;;;;;4956576;28;20050;-42
2022/05/27 11:30:33;;;;;;;;;;;14.40;99.90;;;;;;4965117;28;20048;-42
2022/05/27 11:33:41;;;;;;;13.50;3.25;;;14.40;99.90;;;;;;4965229;28;21725;-43
2022/05/27 11:36:17;;;;;;;15.55;2.95;;;14.40;99.90;;;;;;4943727;28;20051;-42
2022/05/27 11:39:02;;;;;;;17.45;3.80;;;14.50;99.90;;;;;;4939624;28;20104;-42
2022/05/27 11:41:40;;;;;;;17.52;3.85;;;14.40;99.90;;;;;;4945792;28;20511;-42
2022/05/27 11:44:16;;;;;;;19.17;3.50;;;14.40;99.90;;;;;;4958551;28;20054;-42
2022/05/27 11:47:04;;;;;;;13.10;2.80;;;14.40;99.90;;;;;;4963002;28;20425;-42
2022/05/27 11:49:32;;;;;;;10.25;2.58;;;14.50;99.90;;;;;;4966030;28;20062;-42
2022/05/27 11:52:33;;;;;;;10.52;2.95;;;14.40;99.90;;;;;;4968970;28;20089;-42
2022/05/27 11:55:26;;;;;;;13.82;3.00;;;14.40;99.90;;;;;;4964591;28;20054;-42
2022/05/27 11:58:07;;;;;;;16.02;3.00;;;14.40;99.90;;;;;;4950835;28;20054;-42
2022/05/27 12:00:40;;;;;;;15.38;3.10;;;14.30;99.90;;;;;;4967536;28;20560;-42
2022/05/27 12:03:31;;;;;;;17.35;3.00;;;14.30;99.90;;;;;;4965819;28;20058;-42
2022/05/27 12:06:01;;;;;;;;;;;14.30;99.90;;;;;;4949942;28;20457;-43
2022/05/27 12:08:43;;;;;;;13.98;2.90;;;14.30;99.90;;;;;;4948550;28;20376;-42
2022/05/27 12:11:19;;;;;;;15.55;2.38;;;14.30;99.90;;;;;;4958218;28;20513;-42
2022/05/27 12:13:56;;;;;;;12.52;3.33;;;14.30;99.90;;;;;;4963914;28;20069;-42
2022/05/27 12:16:37;;;;;;;13.73;2.90;;;14.30;99.90;;;;;;4971577;28;20525;-42
2022/05/27 12:19:09;;;;;;;16.65;3.65;;;14.30;99.90;;;;;;4970288;28;20054;-42
2022/05/27 12:21:42;;;;;;;13.70;3.25;;;14.20;99.90;;;;;;4974656;28;20362;-43
2022/05/27 12:24:32;;;;;;;18.00;3.70;;;14.40;99.90;;;;;;4974843;28;20109;-42
2022/05/27 12:26:59;;;;;;;18.60;3.22;;;14.20;99.90;;;;;;4962955;28;20054;-42
2022/05/27 12:29:27;;;;;;;19.50;3.55;;;14.30;99.90;;;;;;4979905;28;20603;-42
2022/05/27 12:31:54;;;;;;;14.23;3.63;;;14.40;99.90;;;;;;4978463;28;20045;-42
2022/05/27 12:34:26;;;;;;;16.92;3.30;;;14.50;99.90;;;;;;4945253;28;20058;-42
2022/05/27 12:37:00;;;;;;;15.40;3.60;;;14.60;99.90;;;;;;4932588;28;20090;-42
2022/05/27 12:39:31;;;;;;;12.27;3.03;;;14.60;99.90;;;;;;4943412;28;20043;-42
2022/05/27 12:42:18;;;;;;;13.63;3.43;;;14.70;99.90;;;;;;4944344;28;20710;-42
2022/05/27 12:44:45;;;;;;;14.07;3.35;;;14.70;99.90;;;;;;4965328;28;20286;-43
2022/05/27 12:47:30;;;;;;;14.02;3.10;;;14.70;99.90;;;;;;4950992;28;20073;-42
2022/05/27 12:50:02;;;;;;;15.35;2.90;;;14.70;99.90;;;;;;4973376;28;20054;-41
2022/05/27 12:52:30;;;;;;;16.02;3.35;;;14.70;99.90;;;;;;4970748;28;20156;-42
2022/05/27 12:54:56;;;;;;;16.27;3.30;;;14.80;99.90;;;;;;4971161;28;20059;-42
2022/05/27 13:00:57;;;;;;;15.65;3.78;;;14.80;99.90;;;;;;4967423;28;20694;-42
2022/05/27 13:03:38;;;;;;;18.40;3.65;;;14.80;99.90;;;;;;4974254;28;20074;-42
2022/05/27 13:06:03;;;;;;;14.07;3.03;;;14.90;99.90;;;;;;4955822;28;20050;-42
2022/05/27 13:08:43;;;;;;;9.60;2.67;;;14.90;99.90;;;;;;4941843;28;20058;-42
2022/05/27 13:11:36;;;;;;;12.65;2.78;;;14.90;99.90;;;;;;4961981;28;20078;-42
2022/05/27 13:14:04;;;;;;;13.27;3.08;;;15.00;99.90;;;;;;4962398;28;20046;-42
2022/05/27 13:16:40;;;;;;;9.93;2.97;;;15.00;99.90;;;;;;4954971;28;20536;-43
2022/05/27 13:19:08;;;;;;;11.25;2.67;;;15.00;99.90;;;;;;4961056;28;20050;-43
2022/05/27 13:21:46;;;;;;;17.08;3.15;;;14.90;99.90;;;;;;4965089;28;20674;-42
2022/05/27 13:24:12;;;;;;;20.05;3.20;;;14.90;99.90;;;;;;4963917;28;20062;-42
2022/05/27 13:26:40;;;;;;;15.45;2.88;;;14.90;99.90;;;;;;4950685;28;20509;-42
2022/05/27 13:29:23;;;;;;;16.60;3.30;;;15.00;99.90;;;;;;4963910;28;20078;-43
2022/05/27 13:31:53;;;;;;;12.45;2.63;;;14.90;99.90;;;;;;4964332;28;21553;-42
2022/05/27 13:34:26;;;;;;;17.48;2.67;;;15.00;99.90;;;;;;4962707;28;20495;-42
2022/05/27 13:37:02;;;;;;;16.10;3.25;;;14.90;99.90;;;;;;4947520;28;20494;-42
2022/05/27 13:39:43;;;;;;;16.23;2.83;;;15.10;99.90;;;;;;4966139;28;20069;-42
2022/05/27 13:42:11;;;;;;;14.45;2.60;;;15.00;99.90;;;;;;4966857;28;20085;-42
2022/05/27 13:44:40;;;;;;;13.10;3.13;;;14.90;99.90;;;;;;4965595;28;20058;-42
2022/05/27 13:47:07;;;;;;;9.82;2.60;;;14.90;99.90;;;;;;4956748;28;20059;-42